createdAt,value
2023-05-09T00:01:36.102Z,11.95
2023-05-09T00:04:06.818Z,12.07
2023-05-09T00:06:37.595Z,12.07
2023-05-09T00:09:08.527Z,12.04
2023-05-09T00:11:43.298Z,11.95
2023-05-09T00:14:20.904Z,11.95
2023-05-09T00:16:56.477Z,11.75
2023-05-09T00:19:34.289Z,11.86
2023-05-09T00:22:11.951Z,11.77
2023-05-09T00:24:43.973Z,11.80
2023-05-09T00:30:03.482Z,11.88
2023-05-09T00:32:44.414Z,11.74
2023-05-09T00:35:15.232Z,11.92
2023-05-09T00:37:46.993Z,11.95
2023-05-09T00:40:23.529Z,11.85
2023-05-09T00:42:59.879Z,11.76
2023-05-09T00:45:30.404Z,11.83
2023-05-09T00:48:03.477Z,11.64
2023-05-09T00:50:35.051Z,11.81
2023-05-09T00:55:50.776Z,11.73
2023-05-09T00:58:28.164Z,11.74
2023-05-09T01:01:05.267Z,11.75
2023-05-09T01:03:33.505Z,11.74
2023-05-09T01:06:35.712Z,11.73
2023-05-09T01:09:19.129Z,11.87
2023-05-09T01:12:24.305Z,11.89
2023-05-09T01:15:12.605Z,11.77
2023-05-09T01:18:05.776Z,11.75
2023-05-09T01:20:48.818Z,11.90
2023-05-09T01:24:06.053Z,11.80
2023-05-09T01:27:05.327Z,11.82
2023-05-09T01:30:02.272Z,11.78
2023-05-09T01:32:42.211Z,11.64
2023-05-09T01:35:19.154Z,11.71
2023-05-09T01:37:51.513Z,11.77
2023-05-09T01:40:24.939Z,11.77
2023-05-09T01:43:13.762Z,11.73
2023-05-09T01:45:45.814Z,11.72
2023-05-09T01:48:19.993Z,11.77
2023-05-09T01:50:54.828Z,11.79
2023-05-09T01:53:32.019Z,11.72
2023-05-09T01:56:13.385Z,11.63
2023-05-09T01:58:51.124Z,11.65
2023-05-09T02:01:28.567Z,11.76
2023-05-09T02:04:00.981Z,11.70
2023-05-09T02:06:31.212Z,11.67
2023-05-09T02:09:05.534Z,11.74
2023-05-09T02:11:36.246Z,11.74
2023-05-09T02:14:22.958Z,11.65
2023-05-09T02:16:55.238Z,11.67
2023-05-09T02:19:22.948Z,11.67
2023-05-09T02:21:54.079Z,11.61
2023-05-09T02:24:26.855Z,11.63
2023-05-09T02:27:20.591Z,11.67
2023-05-09T02:29:52.814Z,11.44
2023-05-09T02:32:37.371Z,11.74
2023-05-09T02:35:11.440Z,11.61
2023-05-09T02:37:43.131Z,11.61
2023-05-09T02:40:20.220Z,11.61
2023-05-09T02:42:51.706Z,11.61
2023-05-09T02:45:34.638Z,11.72
2023-05-09T02:48:12.355Z,11.66
2023-05-09T02:50:53.388Z,11.70
2023-05-09T02:53:27.216Z,11.67
2023-05-09T02:55:57.327Z,11.69
2023-05-09T02:58:31.096Z,11.66
2023-05-09T03:01:06.811Z,11.55
2023-05-09T03:03:40.568Z,11.43
2023-05-09T03:06:09.596Z,11.59
2023-05-09T03:08:46.900Z,11.62
2023-05-09T03:11:19.319Z,11.65
2023-05-09T03:13:51.887Z,11.63
2023-05-09T03:16:23.506Z,11.58
2023-05-09T03:18:54.616Z,11.54
2023-05-09T03:21:30.187Z,11.55
2023-05-09T03:24:01.338Z,11.59
2023-05-09T03:26:34.860Z,11.65
2023-05-09T03:29:11.432Z,11.60
2023-05-09T03:34:36.707Z,11.40
2023-05-09T03:37:07.519Z,11.49
2023-05-09T03:39:41.582Z,11.54
2023-05-09T03:42:24.497Z,11.49
2023-05-09T03:45:10.255Z,11.55
2023-05-09T03:47:55.594Z,11.56
2023-05-09T03:50:27.115Z,11.46
2023-05-09T03:53:00.952Z,11.28
2023-05-09T03:55:30.068Z,11.44
2023-05-09T03:58:05.095Z,11.52
2023-05-09T04:03:27.233Z,11.43
2023-05-09T04:06:02.711Z,11.46
2023-05-09T04:08:40.824Z,11.35
2023-05-09T04:11:15.209Z,11.59
2023-05-09T04:13:55.490Z,11.66
2023-05-09T04:16:53.294Z,11.60
2023-05-09T04:19:32.574Z,11.47
2023-05-09T04:22:03.444Z,11.58
2023-05-09T04:24:53.882Z,11.64
2023-05-09T04:27:32.378Z,11.69
2023-05-09T04:30:03.599Z,11.65
2023-05-09T04:32:41.452Z,11.55
2023-05-09T04:35:11.868Z,11.54
2023-05-09T04:37:49.266Z,11.60
2023-05-09T04:40:24.379Z,11.55
2023-05-09T04:43:04.281Z,11.60
2023-05-09T04:45:42.240Z,11.55
2023-05-09T04:48:13.138Z,11.58
2023-05-09T04:50:45.114Z,11.69
2023-05-09T04:53:16.287Z,11.77
2023-05-09T04:56:02.598Z,11.74
2023-05-09T04:58:44.408Z,11.80
2023-05-09T05:01:20.014Z,11.80
2023-05-09T05:03:50.680Z,11.82
2023-05-09T05:06:21.132Z,11.88
2023-05-09T05:08:54.578Z,11.95
2023-05-09T05:11:31.035Z,12.05
2023-05-09T05:14:03.698Z,11.99
2023-05-09T05:16:43.066Z,12.03
2023-05-09T05:19:14.203Z,12.23
2023-05-09T05:21:44.542Z,12.27
2023-05-09T05:24:22.048Z,12.09
2023-05-09T05:26:53.361Z,12.26
2023-05-09T05:29:25.502Z,12.30
2023-05-09T05:31:55.279Z,12.32
2023-05-09T05:34:42.119Z,12.45
2023-05-09T05:37:14.244Z,12.50
2023-05-09T05:39:53.999Z,12.47
2023-05-09T05:42:32.498Z,12.38
2023-05-09T05:45:06.856Z,12.49
2023-05-09T05:47:53.785Z,12.57
2023-05-09T05:50:25.175Z,12.67
2023-05-09T05:55:43.012Z,12.82
2023-05-09T05:58:20.323Z,12.91
2023-05-09T06:00:53.522Z,12.91
2023-05-09T06:03:27.345Z,12.72
2023-05-09T06:06:15.772Z,12.77
2023-05-09T06:08:47.065Z,12.62
2023-05-09T06:11:25.189Z,12.84
2023-05-09T06:13:58.401Z,12.99
2023-05-09T06:16:28.846Z,13.01
2023-05-09T06:18:57.862Z,13.26
2023-05-09T06:21:35.735Z,13.24
2023-05-09T06:24:14.422Z,13.31
2023-05-09T06:26:56.057Z,13.17
2023-05-09T06:29:36.492Z,13.12
2023-05-09T06:32:10.189Z,13.22
2023-05-09T06:34:41.982Z,13.25
2023-05-09T06:37:13.754Z,13.23
2023-05-09T06:39:43.817Z,13.08
2023-05-09T06:45:06.119Z,13.24
2023-05-09T06:47:37.263Z,13.20
2023-05-09T06:50:07.864Z,13.18
2023-05-09T06:52:36.242Z,13.16
2023-05-09T06:55:06.862Z,13.36
2023-05-09T06:57:44.467Z,13.41
2023-05-09T07:00:17.882Z,13.51
2023-05-09T07:02:47.955Z,13.34
2023-05-09T07:05:20.538Z,13.27
2023-05-09T07:07:48.902Z,13.40
2023-05-09T07:10:22.085Z,13.60
2023-05-09T07:12:55.896Z,13.61
2023-05-09T07:15:39.577Z,13.55
2023-05-09T07:18:13.516Z,13.67
2023-05-09T07:20:57.222Z,13.65
2023-05-09T07:23:30.937Z,13.64
2023-05-09T07:26:01.865Z,13.90
2023-05-09T07:28:33.308Z,13.79
2023-05-09T07:31:06.269Z,13.67
2023-05-09T07:33:37.869Z,13.79
2023-05-09T07:36:22.925Z,13.92
2023-05-09T07:38:56.708Z,13.79
2023-05-09T07:41:26.772Z,14.09
2023-05-09T07:44:01.000Z,13.96
2023-05-09T07:46:35.092Z,13.98
2023-05-09T07:49:09.096Z,14.15
2023-05-09T07:51:39.920Z,14.01
2023-05-09T07:54:16.345Z,14.07
2023-05-09T07:59:28.620Z,14.32
2023-05-09T08:02:08.240Z,14.57
2023-05-09T08:04:51.792Z,14.66
2023-05-09T08:07:29.879Z,14.67
2023-05-09T08:09:58.884Z,14.67
2023-05-09T08:12:32.577Z,14.75
2023-05-09T08:15:03.148Z,14.83
2023-05-09T08:17:42.865Z,14.85
2023-05-09T08:20:19.437Z,14.55
2023-05-09T08:22:53.229Z,14.25
2023-05-09T08:28:18.032Z,14.27
2023-05-09T08:30:51.518Z,14.21
2023-05-09T08:33:34.190Z,14.22
2023-05-09T08:36:19.339Z,14.21
2023-05-09T08:38:55.480Z,14.44
2023-05-09T08:41:34.154Z,14.22
2023-05-09T08:44:15.536Z,14.38
2023-05-09T08:46:51.431Z,14.40
2023-05-09T08:49:25.051Z,14.62
2023-05-09T08:52:10.670Z,14.78
2023-05-09T08:54:41.841Z,15.16
2023-05-09T08:57:19.171Z,15.35
2023-05-09T08:59:49.320Z,15.73
2023-05-09T09:02:19.947Z,15.78
2023-05-09T09:04:54.803Z,15.97
2023-05-09T09:07:26.664Z,16.34
2023-05-09T09:10:15.257Z,16.38
2023-05-09T09:12:50.026Z,16.42
2023-05-09T09:15:31.909Z,16.55
2023-05-09T09:18:10.741Z,16.30
2023-05-09T09:20:49.733Z,16.57
2023-05-09T09:23:22.057Z,16.64
2023-05-09T09:26:00.085Z,16.62
2023-05-09T09:28:31.156Z,16.34
2023-05-09T09:33:56.631Z,16.26
2023-05-09T09:36:41.947Z,16.18
2023-05-09T09:39:18.074Z,16.45
2023-05-09T09:41:48.944Z,16.51
2023-05-09T09:44:24.212Z,16.87
2023-05-09T09:46:57.053Z,16.66
2023-05-09T09:49:27.063Z,16.39
2023-05-09T09:52:04.859Z,16.57
2023-05-09T09:54:49.922Z,16.74
2023-05-09T09:57:40.987Z,16.60
2023-05-09T10:00:20.286Z,16.73
2023-05-09T10:03:06.280Z,16.66
2023-05-09T10:05:41.508Z,16.44
2023-05-09T10:08:12.636Z,16.43
2023-05-09T10:10:48.956Z,16.79
2023-05-09T10:13:20.874Z,17.03
2023-05-09T10:15:53.834Z,17.10
2023-05-09T10:18:32.912Z,17.52
2023-05-09T10:21:07.528Z,17.14
2023-05-09T10:23:40.917Z,16.98
2023-05-09T10:26:32.205Z,16.97
2023-05-09T10:29:07.190Z,17.07
2023-05-09T10:31:40.366Z,17.31
2023-05-09T10:34:15.194Z,17.14
2023-05-09T10:36:48.797Z,17.43
2023-05-09T10:39:19.857Z,17.08
2023-05-09T10:42:05.860Z,17.04
2023-05-09T10:44:36.972Z,17.54
2023-05-09T10:47:15.378Z,17.82
2023-05-09T10:49:50.413Z,17.25
2023-05-09T10:52:21.647Z,17.89
2023-05-09T10:55:09.179Z,17.97
2023-05-09T10:57:52.034Z,18.39
2023-05-09T11:00:29.573Z,17.44
2023-05-09T11:03:14.018Z,18.02
2023-05-09T11:05:54.825Z,17.77
2023-05-09T11:08:35.564Z,18.33
2023-05-09T11:11:29.219Z,17.84
2023-05-09T11:14:09.103Z,18.10
2023-05-09T11:17:04.391Z,19.17
2023-05-09T11:20:02.885Z,19.15
2023-05-09T11:22:33.122Z,19.26
2023-05-09T11:25:16.118Z,19.05
2023-05-09T11:27:51.210Z,18.83
2023-05-09T11:30:21.589Z,18.85
2023-05-09T11:33:00.934Z,18.63
2023-05-09T11:35:29.526Z,18.97
2023-05-09T11:38:12.695Z,19.48
2023-05-09T11:40:43.094Z,19.74
2023-05-09T11:43:13.840Z,18.82
2023-05-09T11:48:32.024Z,19.15
2023-05-09T11:51:08.836Z,18.29
2023-05-09T11:53:49.324Z,18.63
2023-05-09T11:56:23.204Z,19.20
2023-05-09T11:58:54.048Z,18.94
2023-05-09T12:01:34.280Z,18.82
2023-05-09T12:04:06.951Z,19.89
2023-05-09T12:06:42.859Z,19.13
2023-05-09T12:09:39.341Z,18.71
2023-05-09T12:12:14.921Z,18.27
2023-05-09T12:14:48.837Z,18.44
2023-05-09T12:17:19.337Z,18.35
2023-05-09T12:19:50.142Z,18.81
2023-05-09T12:22:23.915Z,19.48
2023-05-09T12:24:54.905Z,19.40
2023-05-09T12:27:30.826Z,19.28
2023-05-09T12:32:55.744Z,19.87
2023-05-09T12:35:26.341Z,19.62
2023-05-09T12:37:59.995Z,19.49
2023-05-09T12:40:30.569Z,18.29
2023-05-09T12:43:36.226Z,17.92
2023-05-09T12:46:17.258Z,18.68
2023-05-09T12:48:49.777Z,19.01
2023-05-09T12:51:23.760Z,18.78
2023-05-09T12:54:01.365Z,19.24
2023-05-09T12:56:35.722Z,19.92
2023-05-09T12:59:06.889Z,19.51
2023-05-09T13:01:47.274Z,18.95
2023-05-09T13:04:21.191Z,18.36
2023-05-09T13:06:56.656Z,18.34
2023-05-09T13:09:27.439Z,19.26
2023-05-09T13:11:58.371Z,20.00
2023-05-09T13:14:26.601Z,20.34
2023-05-09T13:16:57.200Z,19.60
2023-05-09T13:19:32.345Z,20.10
2023-05-09T13:22:05.427Z,20.15
2023-05-09T13:24:36.013Z,20.14
2023-05-09T13:27:06.755Z,19.82
2023-05-09T13:29:37.007Z,19.70
2023-05-09T13:32:18.327Z,19.29
2023-05-09T13:34:50.162Z,19.16
2023-05-09T13:40:09.256Z,18.27
2023-05-09T13:42:38.082Z,18.16
2023-05-09T13:45:17.286Z,18.91
2023-05-09T13:47:48.804Z,20.48
2023-05-09T13:50:20.201Z,21.46
2023-05-09T13:52:50.970Z,21.53
2023-05-09T13:55:23.245Z,20.84
2023-05-09T13:57:54.004Z,23.15
2023-05-09T14:00:28.778Z,27.65
2023-05-09T14:03:00.110Z,24.15
2023-05-09T14:05:34.602Z,19.57
2023-05-09T14:08:11.323Z,18.83
2023-05-09T14:10:44.988Z,26.77
2023-05-09T14:13:29.479Z,30.09
2023-05-09T14:16:08.198Z,28.07
2023-05-09T14:18:38.540Z,29.74
2023-05-09T14:21:13.574Z,30.90
2023-05-09T14:23:43.262Z,29.57
2023-05-09T14:26:26.039Z,29.00
2023-05-09T14:29:06.356Z,31.79
2023-05-09T14:31:40.904Z,28.85
2023-05-09T14:34:11.657Z,29.82
2023-05-09T14:36:39.806Z,29.22
2023-05-09T14:39:11.246Z,23.87
2023-05-09T14:41:42.025Z,21.69
2023-05-09T14:44:12.177Z,21.44
2023-05-09T14:46:46.059Z,20.15
2023-05-09T14:49:19.891Z,20.14
2023-05-09T14:51:59.986Z,22.38
2023-05-09T14:54:30.328Z,21.41
2023-05-09T14:57:00.677Z,23.19
2023-05-09T14:59:41.195Z,24.16
2023-05-09T15:02:23.782Z,23.52
2023-05-09T15:04:59.793Z,22.11
2023-05-09T15:07:51.161Z,20.75
2023-05-09T15:10:25.029Z,20.36
2023-05-09T15:13:07.249Z,20.36
2023-05-09T15:15:42.667Z,21.39
2023-05-09T15:18:25.825Z,22.41
2023-05-09T15:20:54.249Z,20.80
2023-05-09T15:23:24.929Z,19.96
2023-05-09T15:26:11.670Z,18.86
2023-05-09T15:28:48.422Z,18.88
2023-05-09T15:31:24.161Z,18.28
2023-05-09T15:33:55.608Z,19.31
2023-05-09T15:36:26.456Z,18.60
2023-05-09T15:39:03.499Z,18.77
2023-05-09T15:41:40.574Z,21.36
2023-05-09T15:44:14.275Z,23.43
2023-05-09T15:46:43.638Z,24.70
2023-05-09T15:49:14.714Z,25.92
2023-05-09T15:51:47.536Z,25.18
2023-05-09T15:54:21.546Z,20.85
2023-05-09T15:59:34.659Z,19.28
2023-05-09T16:02:06.223Z,18.20
2023-05-09T16:04:39.496Z,18.04
2023-05-09T16:07:10.468Z,18.13
2023-05-09T16:09:43.359Z,18.06
2023-05-09T16:12:18.145Z,17.75
2023-05-09T16:14:48.936Z,17.51
2023-05-09T16:20:06.733Z,17.83
2023-05-09T16:22:49.736Z,17.82
2023-05-09T16:25:18.402Z,18.35
2023-05-09T16:27:48.071Z,18.31
2023-05-09T16:33:03.825Z,17.90
2023-05-09T16:35:32.241Z,17.63
2023-05-09T16:38:00.907Z,17.79
2023-05-09T16:40:31.111Z,17.70
2023-05-09T16:43:02.628Z,17.31
2023-05-09T16:45:46.828Z,16.92
2023-05-09T16:48:25.192Z,16.92
2023-05-09T16:51:01.775Z,16.85
2023-05-09T16:53:40.338Z,16.98
2023-05-09T16:56:14.436Z,16.75
2023-05-09T16:58:44.893Z,16.59
2023-05-09T17:01:21.871Z,16.62
2023-05-09T17:04:04.208Z,16.47
2023-05-09T17:06:48.600Z,16.30
2023-05-09T17:09:19.422Z,16.25
2023-05-09T17:11:52.121Z,15.81
2023-05-09T17:14:23.842Z,15.30
2023-05-09T17:16:53.989Z,15.32
2023-05-09T17:19:23.824Z,15.27
2023-05-09T17:21:53.752Z,15.08
2023-05-09T17:24:31.348Z,15.28
2023-05-09T17:27:01.773Z,15.19
2023-05-09T17:29:33.842Z,15.21
2023-05-09T17:32:16.425Z,15.03
2023-05-09T17:34:45.378Z,14.86
2023-05-09T17:37:16.480Z,14.80
2023-05-09T17:39:49.976Z,14.51
2023-05-09T17:42:24.870Z,14.57
2023-05-09T17:45:08.772Z,14.78
2023-05-09T17:47:43.901Z,14.79
2023-05-09T17:50:14.833Z,14.23
2023-05-09T17:52:56.887Z,14.22
2023-05-09T17:55:31.290Z,14.47
2023-05-09T17:58:00.494Z,14.42
2023-05-09T18:00:36.241Z,14.38
2023-05-09T18:03:13.287Z,14.11
2023-05-09T18:05:50.046Z,14.26
2023-05-09T18:08:20.590Z,14.07
2023-05-09T18:10:51.362Z,13.78
2023-05-09T18:13:25.603Z,13.81
2023-05-09T18:15:55.111Z,13.80
2023-05-09T18:18:32.393Z,13.83
2023-05-09T18:21:16.184Z,14.05
2023-05-09T18:23:49.986Z,13.87
2023-05-09T18:26:23.559Z,13.85
2023-05-09T18:28:55.366Z,13.47
2023-05-09T18:31:25.904Z,13.55
2023-05-09T18:34:05.897Z,13.69
2023-05-09T18:36:36.677Z,13.58
2023-05-09T18:39:13.915Z,13.41
2023-05-09T18:41:45.332Z,13.10
2023-05-09T18:44:19.512Z,12.92
2023-05-09T18:46:53.769Z,12.90
2023-05-09T18:49:25.960Z,12.46
2023-05-09T18:52:16.711Z,12.72
2023-05-09T18:54:48.480Z,12.61
2023-05-09T18:57:24.572Z,12.80
2023-05-09T19:00:03.494Z,12.97
2023-05-09T19:02:31.280Z,12.71
2023-05-09T19:05:07.770Z,12.83
2023-05-09T19:07:38.977Z,12.55
2023-05-09T19:10:16.572Z,12.70
2023-05-09T19:12:57.565Z,12.70
2023-05-09T19:15:28.382Z,12.58
2023-05-09T19:20:46.002Z,12.20
2023-05-09T19:23:22.097Z,12.30
2023-05-09T19:25:56.339Z,12.29
2023-05-09T19:28:25.391Z,12.31
2023-05-09T19:31:01.105Z,12.39
2023-05-09T19:33:47.583Z,12.27
2023-05-09T19:36:20.100Z,12.27
2023-05-09T19:38:55.634Z,12.18
2023-05-09T19:41:24.555Z,12.01
2023-05-09T19:44:11.896Z,11.88
2023-05-09T19:46:45.635Z,11.84
2023-05-09T19:49:18.021Z,11.91
2023-05-09T19:51:56.820Z,11.84
2023-05-09T19:54:31.157Z,11.88
2023-05-09T19:57:09.913Z,11.76
2023-05-09T19:59:46.389Z,11.65
2023-05-09T20:02:17.749Z,11.53
2023-05-09T20:05:01.407Z,11.55
2023-05-09T20:07:31.473Z,11.61
2023-05-09T20:10:14.935Z,11.60
2023-05-09T20:12:52.727Z,11.45
2023-05-09T20:15:37.142Z,11.44
2023-05-09T20:18:12.465Z,11.43
2023-05-09T20:20:43.266Z,11.41
2023-05-09T20:23:15.518Z,11.38
2023-05-09T20:25:44.420Z,11.40
2023-05-09T20:28:16.376Z,11.40
2023-05-09T20:30:48.870Z,11.38
2023-05-09T20:33:20.518Z,11.27
2023-05-09T20:35:57.123Z,11.42
2023-05-09T20:38:34.650Z,11.24
2023-05-09T20:41:08.162Z,10.84
2023-05-09T20:43:44.050Z,10.64
2023-05-09T20:46:14.686Z,10.48
2023-05-09T20:48:42.713Z,10.13
2023-05-09T20:51:16.630Z,10.08
2023-05-09T20:53:50.747Z,9.86
2023-05-09T20:56:28.238Z,9.63
2023-05-09T20:59:03.178Z,9.80
2023-05-09T21:01:45.470Z,9.76
2023-05-09T21:07:10.117Z,9.35
2023-05-09T21:09:47.301Z,9.38
2023-05-09T21:12:21.688Z,9.16
2023-05-09T21:14:51.665Z,9.10
2023-05-09T21:17:27.891Z,9.41
2023-05-09T21:19:58.572Z,9.47
2023-05-09T21:22:42.201Z,9.19
2023-05-09T21:25:16.146Z,9.37
2023-05-09T21:27:55.789Z,9.17
2023-05-09T21:30:33.326Z,9.27
2023-05-09T21:33:03.920Z,9.01
2023-05-09T21:35:46.947Z,9.02
2023-05-09T21:38:31.725Z,8.86
2023-05-09T21:41:05.767Z,8.78
2023-05-09T21:43:37.765Z,8.79
2023-05-09T21:46:12.177Z,8.97
2023-05-09T21:48:42.906Z,9.04
2023-05-09T21:51:15.670Z,8.74
2023-05-09T21:53:46.954Z,8.86
2023-05-09T21:56:18.197Z,8.92
2023-05-09T21:58:53.986Z,8.55
2023-05-09T22:01:30.331Z,8.29
2023-05-09T22:04:03.368Z,8.42
2023-05-09T22:06:37.443Z,8.42
2023-05-09T22:09:09.494Z,8.48
2023-05-09T22:11:43.496Z,8.44
2023-05-09T22:14:13.839Z,8.71
2023-05-09T22:16:57.627Z,8.47
2023-05-09T22:19:27.347Z,8.64
2023-05-09T22:21:56.276Z,8.47
2023-05-09T22:24:31.350Z,8.58
2023-05-09T22:27:11.593Z,8.49
2023-05-09T22:29:45.423Z,8.44
2023-05-09T22:32:20.169Z,8.11
2023-05-09T22:34:53.392Z,8.25
2023-05-09T22:37:26.581Z,8.26
2023-05-09T22:40:06.326Z,7.91
2023-05-09T22:42:37.486Z,8.28
2023-05-09T22:45:09.819Z,8.32
2023-05-09T22:47:40.509Z,7.93
2023-05-09T22:50:15.072Z,8.06
2023-05-09T22:52:50.913Z,7.98
2023-05-09T22:55:24.698Z,8.04
2023-05-09T22:57:58.154Z,7.74
2023-05-09T23:00:33.855Z,7.91
2023-05-09T23:03:14.465Z,8.05
2023-05-09T23:05:48.943Z,7.86
2023-05-09T23:08:17.263Z,7.80
2023-05-09T23:10:51.905Z,7.78
2023-05-09T23:13:32.662Z,7.84
2023-05-09T23:16:06.714Z,7.88
2023-05-09T23:18:52.757Z,7.77
2023-05-09T23:21:23.672Z,7.78
2023-05-09T23:23:54.824Z,7.82
2023-05-09T23:26:25.443Z,7.74
2023-05-09T23:31:51.151Z,7.49
2023-05-09T23:34:38.792Z,7.68
2023-05-09T23:37:20.696Z,7.70
2023-05-09T23:42:33.435Z,7.51
2023-05-09T23:45:05.804Z,7.63
2023-05-09T23:47:40.486Z,7.66
2023-05-09T23:50:14.615Z,7.60
2023-05-09T23:52:49.868Z,7.63
2023-05-09T23:55:20.952Z,7.70
2023-05-09T23:57:57.904Z,7.64
